Time;durP1;ratioP1;P1;durP2;ratioP2;P2;SDS_P1;SDS_P2;PMS_P1;PMS_P2;Temp;Humidity;BMP_temperature;BMP_pressure;BME280_temperature;BME280_humidity;BME280_pressure;Samples;Min_cycle;Max_cycle;Signal;HPM_P1;HPM_P2
2023/01/24 00:01:39;;;;;;;22.88;12.23;;;4.60;99.90;;;;;;5112931;28;20086;-90
2023/01/24 00:04:05;;;;;;;23.75;12.00;;;4.60;99.90;;;;;;5095496;28;20044;-89
2023/01/24 00:06:30;;;;;;;25.15;12.90;;;4.70;99.90;;;;;;5113070;28;20113;-90
2023/01/24 00:08:56;;;;;;;22.13;12.43;;;4.60;99.90;;;;;;5096381;28;20036;-90
2023/01/24 00:11:21;;;;;;;24.55;12.00;;;4.60;99.90;;;;;;5113492;28;20234;-89
2023/01/24 00:13:47;;;;;;;22.60;12.25;;;4.60;99.90;;;;;;5113026;28;20122;-90
2023/01/24 00:16:21;;;;;;;24.23;12.70;;;4.60;99.90;;;;;;5113463;28;20385;-91
2023/01/24 00:18:47;;;;;;;22.10;12.45;;;4.60;99.90;;;;;;5096278;28;20089;-91
2023/01/24 00:21:19;;;;;;;21.60;12.20;;;4.60;99.90;;;;;;5096356;28;20030;-91
2023/01/24 00:23:47;;;;;;;24.00;12.75;;;4.60;99.90;;;;;;5095626;28;20083;-90
2023/01/24 00:26:14;;;;;;;22.55;12.60;;;4.60;99.90;;;;;;5096287;28;20032;-90
2023/01/24 00:28:39;;;;;;;22.42;11.43;;;4.60;99.90;;;;;;5096205;28;20110;-90
2023/01/24 00:31:05;;;;;;;22.35;11.65;;;4.60;99.90;;;;;;5095896;28;20177;-90
2023/01/24 00:33:31;;;;;;;25.08;12.60;;;4.60;99.90;;;;;;5112476;28;20096;-90
2023/01/24 00:35:57;;;;;;;19.70;12.05;;;4.60;99.90;;;;;;5096136;28;20450;-91
2023/01/24 00:38:23;;;;;;;21.08;11.70;;;4.60;99.90;;;;;;5113321;28;20493;-90
2023/01/24 00:40:49;;;;;;;23.73;12.75;;;4.60;99.90;;;;;;5096751;28;20031;-90
2023/01/24 00:43:15;;;;;;;22.42;11.50;;;4.60;99.90;;;;;;5112994;28;20046;-90
2023/01/24 00:45:43;;;;;;;25.85;13.88;;;4.60;99.90;;;;;;5113114;28;20039;-90
2023/01/24 00:48:09;;;;;;;21.63;11.60;;;4.60;99.90;;;;;;5113338;28;20039;-90
2023/01/24 00:50:35;;;;;;;25.35;13.25;;;4.60;99.90;;;;;;5096292;28;20066;-90
2023/01/24 00:53:01;;;;;;;23.58;13.02;;;4.60;99.90;;;;;;5095789;28;20560;-90
2023/01/24 00:55:27;;;;;;;24.05;12.13;;;4.50;99.90;;;;;;5096084;28;20040;-90
2023/01/24 00:57:53;;;;;;;22.90;12.65;;;4.60;99.90;;;;;;5096004;28;20035;-90
2023/01/24 01:00:19;;;;;;;23.67;12.18;;;4.60;99.90;;;;;;5112864;28;20081;-90
2023/01/24 01:02:45;;;;;;;21.60;11.65;;;4.60;99.90;;;;;;5112474;28;20172;-90
2023/01/24 01:05:10;;;;;;;20.85;11.98;;;4.60;99.90;;;;;;5095801;28;20131;-90
2023/01/24 01:07:36;;;;;;;23.20;11.43;;;4.60;99.90;;;;;;5095871;28;20051;-90
2023/01/24 01:10:02;;;;;;;22.88;12.05;;;4.60;99.90;;;;;;5112965;28;20036;-90
2023/01/24 01:12:28;;;;;;;21.67;11.70;;;4.60;99.90;;;;;;5095452;28;20035;-90
2023/01/24 01:14:53;;;;;;;21.95;11.27;;;4.50;99.90;;;;;;5095673;28;20417;-90
2023/01/24 01:17:19;;;;;;;24.80;12.43;;;4.60;99.90;;;;;;5112683;28;20127;-90
2023/01/24 01:19:45;;;;;;;22.90;12.20;;;4.60;99.90;;;;;;5095878;28;20175;-90
2023/01/24 01:22:10;;;;;;;23.20;12.45;;;4.60;99.90;;;;;;5095453;28;20142;-90
2023/01/24 01:24:36;;;;;;;23.85;13.10;;;4.60;99.90;;;;;;5112683;28;20464;-90
2023/01/24 01:27:02;;;;;;;25.85;13.70;;;4.60;99.90;;;;;;5095662;28;20180;-90
2023/01/24 01:29:27;;;;;;;24.48;12.50;;;4.60;99.90;;;;;;5095509;28;20632;-90
2023/01/24 01:31:53;;;;;;;22.50;12.65;;;4.60;99.90;;;;;;5095286;28;20048;-90
2023/01/24 01:34:19;;;;;;;21.85;11.40;;;4.60;99.90;;;;;;5112322;28;20539;-90
2023/01/24 01:36:45;;;;;;;27.08;15.02;;;4.60;99.90;;;;;;5095076;28;20061;-89
2023/01/24 01:39:10;;;;;;;21.88;11.52;;;4.60;99.90;;;;;;5112042;28;20040;-90
2023/01/24 01:41:36;;;;;;;24.08;13.13;;;4.60;99.90;;;;;;5111927;28;20039;-90
2023/01/24 01:44:38;;;;;;;20.25;10.93;;;4.50;99.90;;;;;;5111756;28;20507;-90
2023/01/24 01:47:10;;;;;;;20.50;10.93;;;4.60;99.90;;;;;;5094788;28;20097;-91
2023/01/24 01:49:39;;;;;;;20.00;10.90;;;4.50;99.90;;;;;;5093764;28;20470;-90
2023/01/24 01:52:06;;;;;;;16.40;9.73;;;4.60;99.90;;;;;;5094482;28;20062;-89
2023/01/24 01:54:36;;;;;;;22.10;10.55;;;4.50;99.90;;;;;;5094793;28;20085;-90
2023/01/24 01:57:11;;;;;;;22.40;10.57;;;4.50;99.90;;;;;;5094951;28;20049;-90
2023/01/24 01:59:41;;;;;;;23.42;12.15;;;4.50;99.90;;;;;;5095015;28;20031;-90
2023/01/24 02:02:08;;;;;;;22.80;12.73;;;4.60;99.90;;;;;;5094317;28;20676;-90
2023/01/24 02:04:36;;;;;;;22.98;12.05;;;4.50;99.90;;;;;;5111869;28;20031;-89
2023/01/24 02:07:16;;;;;;;23.45;12.38;;;4.60;99.90;;;;;;5111200;28;20089;-89
2023/01/24 02:09:45;;;;;;;22.63;11.20;;;4.50;99.90;;;;;;5111465;28;20048;-90
2023/01/24 02:12:15;;;;;;;16.15;9.05;;;4.50;99.90;;;;;;5094123;28;20036;-89
2023/01/24 02:17:29;;;;;;;19.52;9.82;;;4.50;99.90;;;;;;5111402;28;20489;-90
2023/01/24 02:20:28;;;;;;;20.13;10.60;;;4.50;99.90;;;;;;5094626;28;20065;-90
2023/01/24 02:23:21;;;;;;;19.63;10.20;;;4.50;99.90;;;;;;5059926;28;20043;-90
2023/01/24 02:26:12;;;;;;;18.05;9.32;;;4.50;99.90;;;;;;5111025;28;20404;-89
2023/01/24 02:28:41;;;;;;;18.30;9.57;;;4.50;99.90;;;;;;5094498;28;20044;-89
2023/01/24 02:31:07;;;;;;;20.05;10.48;;;4.50;99.90;;;;;;5094478;28;20400;-89
2023/01/24 02:33:33;;;;;;;20.05;10.55;;;4.50;99.90;;;;;;5093916;28;20107;-89
2023/01/24 02:36:31;;;;;;;19.67;9.85;;;4.50;99.90;;;;;;5094122;28;20126;-89
2023/01/24 02:39:06;;;;;;;15.63;8.00;;;4.50;99.90;;;;;;5094009;28;20089;-89
2023/01/24 02:41:48;;;;;;;17.77;9.13;;;4.50;99.90;;;;;;5094273;28;20039;-89
2023/01/24 02:44:22;;;;;;;15.88;8.13;;;4.40;99.90;;;;;;5093737;28;20047;-89
2023/01/24 02:46:48;;;;;;;16.38;8.77;;;4.40;99.90;;;;;;5110639;28;20036;-90
2023/01/24 02:49:14;;;;;;;16.70;8.50;;;4.40;99.90;;;;;;5110863;28;20408;-90
2023/01/24 02:54:23;;;;;;;13.90;7.72;;;4.40;99.90;;;;;;5111093;28;20071;-90
2023/01/24 02:59:33;;;;;;;17.63;8.65;;;4.40;99.90;;;;;;5113941;28;20047;-90
2023/01/24 03:01:58;;;;;;;15.85;8.55;;;4.40;99.90;;;;;;5100329;28;20032;-90
2023/01/24 03:04:24;;;;;;;14.30;7.47;;;4.40;99.90;;;;;;5117530;28;20038;-89
2023/01/24 03:06:50;;;;;;;16.02;7.85;;;4.40;99.90;;;;;;5100535;28;20226;-90
2023/01/24 03:09:18;;;;;;;16.90;7.97;;;4.40;99.90;;;;;;5100532;28;20046;-90
2023/01/24 03:11:49;;;;;;;14.88;7.97;;;4.40;99.90;;;;;;5117324;28;20155;-90
2023/01/24 03:36:31;;;;;;;14.02;7.13;;;4.40;99.90;;;;;;5117259;28;20040;-89
2023/01/24 03:41:40;;;;;;;14.90;6.50;;;4.40;99.90;;;;;;5117597;28;20400;-89
2023/01/24 03:44:06;;;;;;;14.40;6.45;;;4.30;99.90;;;;;;5100259;28;20039;-89
2023/01/24 03:46:32;;;;;;;12.35;6.40;;;4.30;99.90;;;;;;5117565;28;20031;-89
2023/01/24 03:48:57;;;;;;;12.70;6.85;;;4.30;99.90;;;;;;5100125;28;20040;-89
2023/01/24 03:54:07;;;;;;;15.23;7.50;;;4.30;99.90;;;;;;5096563;28;20050;-89
2023/01/24 03:56:32;;;;;;;12.73;6.45;;;4.30;99.90;;;;;;5097117;28;20126;-90
2023/01/24 03:58:58;;;;;;;13.10;6.22;;;4.30;99.90;;;;;;5096720;28;20039;-90
2023/01/24 04:01:24;;;;;;;13.73;6.93;;;4.30;99.90;;;;;;5096862;28;20036;-90
2023/01/24 04:03:49;;;;;;;13.55;6.25;;;4.30;99.90;;;;;;5096244;28;20119;-90
2023/01/24 04:06:17;;;;;;;13.38;6.72;;;4.30;99.90;;;;;;5131317;27;20058;-89
2023/01/24 04:08:42;;;;;;;13.80;7.07;;;4.30;99.90;;;;;;5096693;28;20048;-90
2023/01/24 04:11:08;;;;;;;13.98;6.55;;;4.30;99.90;;;;;;5128786;27;20052;-89
2023/01/24 04:13:33;;;;;;;13.68;6.30;;;4.30;99.90;;;;;;5093042;28;20040;-90
2023/01/24 04:15:59;;;;;;;14.02;6.55;;;4.30;99.90;;;;;;5110458;28;20071;-89
2023/01/24 04:18:25;;;;;;;13.32;6.10;;;4.30;99.90;;;;;;5093252;28;20043;-90
2023/01/24 04:20:50;;;;;;;14.07;6.43;;;4.30;99.90;;;;;;5093679;28;20067;-89
2023/01/24 04:23:16;;;;;;;13.13;6.53;;;4.20;99.90;;;;;;5093168;28;20707;-89
2023/01/24 04:25:41;;;;;;;12.38;6.05;;;4.20;99.90;;;;;;5127437;27;20043;-89
2023/01/24 04:28:07;;;;;;;13.60;6.60;;;4.20;99.90;;;;;;5076259;28;20476;-90
2023/01/24 04:30:33;;;;;;;11.82;6.38;;;4.20;99.90;;;;;;5092975;28;20067;-89
2023/01/24 04:32:58;;;;;;;12.93;7.28;;;4.30;99.90;;;;;;5126759;27;20040;-90
2023/01/24 04:35:27;;;;;;;13.25;6.45;;;4.20;99.90;;;;;;5093320;28;20413;-89
2023/01/24 04:37:53;;;;;;;13.07;6.50;;;4.30;99.90;;;;;;5093055;28;20570;-89
2023/01/24 04:40:18;;;;;;;14.82;6.68;;;4.20;99.90;;;;;;5092956;28;20044;-89
2023/01/24 04:42:44;;;;;;;12.80;6.47;;;4.20;99.90;;;;;;5092809;28;20122;-90
2023/01/24 04:48:01;;;;;;;13.30;5.90;;;4.20;99.90;;;;;;5093305;28;20131;-89
2023/01/24 04:50:27;;;;;;;14.15;7.03;;;4.30;99.90;;;;;;5093113;28;20589;-90
2023/01/24 04:52:52;;;;;;;13.13;6.47;;;4.20;99.90;;;;;;5126734;27;20083;-90
2023/01/24 04:55:18;;;;;;;15.07;6.53;;;4.20;99.90;;;;;;5076075;28;20046;-90
2023/01/24 04:57:43;;;;;;;13.50;6.47;;;4.20;99.90;;;;;;5092527;28;20546;-90
2023/01/24 05:00:10;;;;;;;13.27;6.03;;;4.20;99.90;;;;;;5126792;27;20127;-89
2023/01/24 05:02:37;;;;;;;12.38;6.65;;;4.20;99.90;;;;;;5092386;28;20505;-89
2023/01/24 05:05:04;;;;;;;11.70;5.82;;;4.20;99.90;;;;;;5126841;27;20072;-90
2023/01/24 05:07:29;;;;;;;13.18;6.03;;;4.20;99.90;;;;;;5092436;28;20071;-90
2023/01/24 05:09:55;;;;;;;12.30;5.95;;;4.20;99.90;;;;;;5075502;28;20551;-89
2023/01/24 05:12:21;;;;;;;12.90;6.00;;;4.20;99.90;;;;;;5091690;28;20039;-90
2023/01/24 05:14:46;;;;;;;13.63;6.90;;;4.20;99.90;;;;;;5092564;28;20109;-90
2023/01/24 05:17:12;;;;;;;14.02;6.55;;;4.20;99.90;;;;;;5092527;28;20040;-89
2023/01/24 05:19:37;;;;;;;13.98;6.25;;;4.20;99.90;;;;;;5092211;28;20040;-90
2023/01/24 05:22:03;;;;;;;12.18;6.25;;;4.20;99.90;;;;;;5108608;28;20043;-90
2023/01/24 05:24:29;;;;;;;13.48;6.03;;;4.20;99.90;;;;;;5091049;28;20039;-90
2023/01/24 05:26:54;;;;;;;12.85;6.55;;;4.20;99.90;;;;;;5126120;27;20035;-89
2023/01/24 05:29:20;;;;;;;13.13;6.38;;;4.10;99.90;;;;;;5074945;28;20032;-90
2023/01/24 05:31:46;;;;;;;12.52;6.22;;;4.10;99.90;;;;;;5126007;27;20040;-89
2023/01/24 05:34:11;;;;;;;12.65;6.22;;;4.10;99.90;;;;;;5091636;28;20170;-89
2023/01/24 05:36:37;;;;;;;15.20;6.72;;;4.10;99.90;;;;;;5074994;28;20527;-89
2023/01/24 05:39:03;;;;;;;13.73;6.72;;;4.10;99.90;;;;;;5125870;27;20047;-89
2023/01/24 05:41:29;;;;;;;14.18;7.53;;;4.10;99.90;;;;;;5091578;28;20071;-90
2023/01/24 05:43:54;;;;;;;15.13;6.78;;;4.10;99.90;;;;;;5091273;28;20093;-90
2023/01/24 05:46:22;;;;;;;11.43;5.53;;;4.10;99.90;;;;;;5125901;27;20040;-90
2023/01/24 05:48:48;;;;;;;11.35;5.50;;;4.10;99.90;;;;;;5091706;28;20135;-90
2023/01/24 05:51:16;;;;;;;15.45;6.45;;;4.10;99.90;;;;;;5091506;28;20036;-89
2023/01/24 05:53:43;;;;;;;11.90;5.72;;;4.10;99.90;;;;;;5091232;28;20032;-90
2023/01/24 05:56:18;;;;;;;15.30;7.22;;;4.10;99.90;;;;;;5091558;28;20105;-90
2023/01/24 05:58:44;;;;;;;12.43;6.35;;;4.10;99.90;;;;;;5091617;28;20497;-90
2023/01/24 06:01:21;;;;;;;13.23;6.35;;;4.10;99.90;;;;;;5125685;27;20512;-90
2023/01/24 06:03:50;;;;;;;13.48;6.53;;;4.10;99.90;;;;;;5091071;28;20035;-90
2023/01/24 06:06:17;;;;;;;12.68;6.93;;;4.10;99.90;;;;;;5091353;28;20082;-90
2023/01/24 06:08:43;;;;;;;13.95;7.20;;;4.20;99.90;;;;;;5091161;28;20036;-90
2023/01/24 06:11:15;;;;;;;13.95;6.35;;;4.10;99.90;;;;;;5091468;28;20036;-90
2023/01/24 06:13:41;;;;;;;12.30;6.32;;;4.10;99.90;;;;;;5090819;28;20074;-90
2023/01/24 06:16:14;;;;;;;14.23;7.07;;;4.10;99.90;;;;;;5125453;27;20401;-90
2023/01/24 06:18:40;;;;;;;13.25;5.82;;;4.10;99.90;;;;;;5091091;28;20043;-90
2023/01/24 06:21:23;;;;;;;13.82;7.03;;;4.10;99.90;;;;;;5091275;28;20055;-90
2023/01/24 06:23:49;;;;;;;;;;;4.10;99.90;;;;;;5091236;28;20431;-89
2023/01/24 06:26:14;;;;;;;13.15;6.60;;;4.10;99.90;;;;;;5125213;27;19916;-89
2023/01/24 06:28:40;;;;;;;13.85;6.05;;;4.00;99.90;;;;;;5074420;28;20044;-90
2023/01/24 06:31:31;;;;;;;15.60;6.43;;;4.00;99.90;;;;;;5090620;28;20062;-90
2023/01/24 06:34:26;;;;;;;13.55;6.53;;;4.00;99.90;;;;;;5073027;28;20158;-90
2023/01/24 06:37:15;;;;;;;13.65;6.75;;;4.00;99.90;;;;;;5074051;28;20051;-90
2023/01/24 06:39:49;;;;;;;14.88;7.10;;;4.00;99.90;;;;;;5074029;28;20038;-90
2023/01/24 06:42:17;;;;;;;11.82;6.07;;;3.90;99.90;;;;;;5090487;28;20036;-90
2023/01/24 06:44:42;;;;;;;14.18;6.93;;;4.00;99.90;;;;;;5127458;27;20028;-89
2023/01/24 06:47:10;;;;;;;13.43;6.55;;;4.00;99.90;;;;;;5111170;28;20504;-90
2023/01/24 06:49:36;;;;;;;12.32;5.97;;;4.00;99.90;;;;;;5094559;28;20515;-91
2023/01/24 06:52:02;;;;;;;12.75;6.47;;;3.90;99.90;;;;;;5110878;28;20079;-91
2023/01/24 06:54:27;;;;;;;14.82;7.30;;;3.90;99.90;;;;;;5110988;28;20071;-91
2023/01/24 06:56:53;;;;;;;13.38;6.38;;;3.90;99.90;;;;;;5110816;28;20385;-91
2023/01/24 06:59:19;;;;;;;13.40;6.57;;;3.90;99.90;;;;;;5094388;28;20040;-91
2023/01/24 07:01:45;;;;;;;16.75;7.25;;;3.90;99.90;;;;;;5093773;28;20040;-91
2023/01/24 07:04:10;;;;;;;12.70;6.85;;;3.90;99.90;;;;;;5110861;28;20043;-91
2023/01/24 07:06:36;;;;;;;14.45;7.82;;;3.90;99.90;;;;;;5094069;28;20424;-92
2023/01/24 07:09:02;;;;;;;13.73;6.78;;;3.90;99.90;;;;;;5094173;28;20039;-91
2023/01/24 07:11:27;;;;;;;12.20;6.60;;;3.90;99.90;;;;;;5111065;28;20040;-90
2023/01/24 07:13:53;;;;;;;16.10;7.20;;;3.90;99.90;;;;;;5093913;28;20031;-91
2023/01/24 07:16:18;;;;;;;14.93;6.80;;;3.90;99.90;;;;;;5094330;28;20126;-91
2023/01/24 07:18:44;;;;;;;12.38;6.65;;;3.90;99.90;;;;;;5110965;28;20043;-91
2023/01/24 07:21:10;;;;;;;14.32;7.32;;;3.90;99.90;;;;;;5093944;28;20451;-90
2023/01/24 07:23:37;;;;;;;13.88;7.07;;;3.90;99.90;;;;;;5093726;28;20057;-91
2023/01/24 07:26:03;;;;;;;13.07;6.90;;;3.90;99.90;;;;;;5093723;28;20112;-90
2023/01/24 07:28:29;;;;;;;14.13;6.63;;;3.90;99.90;;;;;;5093669;28;20039;-90
2023/01/24 07:30:54;;;;;;;13.18;7.20;;;3.90;99.90;;;;;;5093788;28;20035;-90
2023/01/24 07:33:21;;;;;;;14.05;6.72;;;3.90;99.90;;;;;;5109625;28;20038;-90
2023/01/24 07:35:46;;;;;;;14.48;6.80;;;3.90;99.90;;;;;;5093260;28;20065;-90
2023/01/24 07:38:12;;;;;;;12.80;7.18;;;3.90;99.90;;;;;;5110306;28;20055;-90
2023/01/24 07:40:38;;;;;;;13.75;6.82;;;3.90;99.90;;;;;;5110339;28;20031;-90
2023/01/24 07:43:05;;;;;;;14.45;6.90;;;3.90;99.90;;;;;;5092779;28;20039;-90
2023/01/24 07:45:31;;;;;;;16.17;7.75;;;3.90;99.90;;;;;;5109459;27;20031;-89
2023/01/24 07:47:58;;;;;;;14.27;7.72;;;3.90;99.90;;;;;;5105254;28;20404;-89
2023/01/24 07:50:26;;;;;;;14.43;7.15;;;3.90;99.90;;;;;;5103584;27;20526;-89
2023/01/24 07:52:52;;;;;;;13.23;6.93;;;3.90;99.90;;;;;;5115690;27;20114;-89
2023/01/24 07:55:19;;;;;;;14.07;7.25;;;3.90;99.90;;;;;;5116760;27;20051;-89
2023/01/24 07:57:44;;;;;;;13.70;6.85;;;3.90;99.90;;;;;;5133196;27;20150;-89
2023/01/24 08:00:11;;;;;;;12.82;6.75;;;3.90;99.90;;;;;;5104390;28;20130;-89
2023/01/24 08:02:36;;;;;;;15.82;6.82;;;3.90;99.90;;;;;;5094489;27;20031;-89
2023/01/24 08:05:02;;;;;;;14.48;6.95;;;3.90;99.90;;;;;;5129327;27;20053;-89
2023/01/24 08:07:28;;;;;;;13.63;7.70;;;3.90;99.90;;;;;;5093429;28;20035;-89
2023/01/24 08:09:53;;;;;;;14.05;7.20;;;3.90;99.90;;;;;;5118911;27;20045;-89
2023/01/24 08:12:20;;;;;;;14.07;7.53;;;3.90;99.90;;;;;;5106850;27;20035;-89
2023/01/24 08:14:45;;;;;;;12.60;7.25;;;3.90;99.90;;;;;;5111174;27;20121;-89
2023/01/24 08:17:11;;;;;;;13.82;7.70;;;3.90;99.90;;;;;;5099303;28;20126;-90
2023/01/24 08:19:38;;;;;;;15.25;6.90;;;3.90;99.90;;;;;;5112637;27;20097;-89
2023/01/24 08:22:04;;;;;;;15.85;7.25;;;3.90;99.90;;;;;;5127580;27;20039;-89
2023/01/24 08:24:30;;;;;;;13.95;7.65;;;3.90;99.90;;;;;;5131059;27;20039;-90
2023/01/24 08:26:55;;;;;;;13.35;6.95;;;3.90;99.90;;;;;;5106153;28;20051;-90
2023/01/24 08:29:21;;;;;;;13.45;6.90;;;3.90;99.90;;;;;;5094850;28;20039;-90
2023/01/24 08:31:48;;;;;;;14.18;7.88;;;3.80;99.90;;;;;;5128347;27;20035;-90
2023/01/24 08:34:14;;;;;;;13.68;8.20;;;3.80;99.90;;;;;;5128622;27;20044;-90
2023/01/24 08:36:39;;;;;;;14.57;7.60;;;3.80;99.90;;;;;;5111695;28;20123;-90
2023/01/24 08:39:05;;;;;;;14.55;8.10;;;3.80;99.90;;;;;;5128121;27;20040;-89
2023/01/24 08:41:31;;;;;;;15.00;8.25;;;3.80;99.90;;;;;;5094841;28;20036;-89
2023/01/24 08:43:56;;;;;;;13.30;7.97;;;3.80;99.90;;;;;;5127380;27;20038;-90
2023/01/24 08:46:22;;;;;;;14.25;8.88;;;3.80;99.90;;;;;;5129349;27;20039;-89
2023/01/24 08:48:47;;;;;;;15.60;8.32;;;3.80;99.90;;;;;;5128763;27;20075;-89
2023/01/24 08:51:13;;;;;;;13.35;7.30;;;3.80;99.90;;;;;;5127468;27;20036;-89
2023/01/24 08:53:39;;;;;;;14.40;7.57;;;3.80;99.90;;;;;;5128151;27;20035;-89
2023/01/24 08:56:06;;;;;;;15.82;7.68;;;3.80;99.90;;;;;;5116931;27;20422;-89
2023/01/24 08:58:33;;;;;;;14.35;7.72;;;3.80;99.90;;;;;;5132220;27;20408;-90
2023/01/24 09:01:06;;;;;;;13.88;6.82;;;3.80;99.90;;;;;;5115616;27;20031;-89
2023/01/24 09:03:31;;;;;;;13.00;7.93;;;3.80;99.90;;;;;;5112256;27;20042;-90
2023/01/24 09:05:57;;;;;;;13.38;7.95;;;3.80;99.90;;;;;;5111117;28;20043;-90
2023/01/24 09:08:23;;;;;;;15.27;8.00;;;3.80;99.90;;;;;;5114962;27;20039;-89
2023/01/24 09:10:48;;;;;;;13.35;7.82;;;3.90;99.90;;;;;;5111162;27;20438;-89
2023/01/24 09:13:15;;;;;;;14.48;8.10;;;3.90;99.90;;;;;;5092102;28;20043;-90
2023/01/24 09:15:41;;;;;;;12.45;7.40;;;3.90;99.90;;;;;;5103212;27;20067;-91
2023/01/24 09:18:06;;;;;;;13.90;8.23;;;3.90;99.90;;;;;;5115148;27;20077;-90
2023/01/24 09:20:32;;;;;;;14.77;8.68;;;3.90;99.90;;;;;;5107257;27;20626;-90
2023/01/24 09:22:58;;;;;;;15.45;8.27;;;3.90;99.90;;;;;;5093943;28;20036;-91
2023/01/24 09:25:23;;;;;;;15.02;8.65;;;3.90;99.90;;;;;;5111155;28;20348;-90
2023/01/24 09:27:54;;;;;;;13.80;7.05;;;3.90;99.90;;;;;;5121936;27;20449;-91
2023/01/24 09:30:20;;;;;;;14.18;7.88;;;3.90;99.90;;;;;;5093884;28;20404;-90
2023/01/24 09:32:46;;;;;;;14.15;7.88;;;3.90;99.90;;;;;;5095045;27;20035;-90
2023/01/24 09:35:11;;;;;;;15.15;8.60;;;3.80;99.90;;;;;;5093274;28;20124;-91
2023/01/24 09:37:37;;;;;;;16.02;9.27;;;3.90;99.90;;;;;;5093897;27;20031;-91
2023/01/24 09:40:03;;;;;;;16.13;8.35;;;3.90;99.90;;;;;;5094249;28;20042;-91
2023/01/24 09:42:35;;;;;;;14.95;8.18;;;3.90;99.90;;;;;;5093975;28;20105;-91
2023/01/24 09:45:12;;;;;;;13.13;8.05;;;3.90;99.90;;;;;;5095956;28;20082;-91
2023/01/24 09:47:54;;;;;;;12.52;7.10;;;3.90;99.90;;;;;;5130775;27;20678;-91
2023/01/24 09:50:41;;;;;;;13.25;7.45;;;3.90;99.90;;;;;;5114193;27;20043;-91
2023/01/24 09:53:30;;;;;;;16.48;9.10;;;3.90;99.90;;;;;;5073191;28;20043;-91
2023/01/24 09:55:58;;;;;;;13.50;7.43;;;3.90;99.90;;;;;;5092119;27;20135;-90
2023/01/24 09:58:31;;;;;;;13.85;7.28;;;3.90;99.90;;;;;;5127883;27;20043;-91
2023/01/24 10:01:07;;;;;;;;;;;3.90;99.90;;;;;;5114028;27;20092;-91
2023/01/24 10:03:33;;;;;;;14.23;8.05;;;3.90;99.90;;;;;;5108947;27;20384;-91
2023/01/24 10:06:06;;;;;;;16.30;8.20;;;3.90;99.90;;;;;;5114422;27;20027;-91
2023/01/24 10:08:48;;;;;;;14.68;8.07;;;3.90;99.90;;;;;;5113657;28;20060;-91
2023/01/24 10:11:39;;;;;;;13.05;6.88;;;3.90;99.90;;;;;;5118297;27;20039;-91
2023/01/24 10:14:33;;;;;;;13.98;7.65;;;3.90;99.90;;;;;;5113571;27;20035;-91
2023/01/24 10:17:17;;;;;;;13.32;7.97;;;3.90;99.90;;;;;;5106260;27;20043;-91
2023/01/24 10:20:07;;;;;;;13.98;7.80;;;3.90;99.90;;;;;;5131178;27;20039;-91
2023/01/24 10:22:48;;;;;;;13.18;7.63;;;3.90;99.90;;;;;;5137821;27;20075;-91
2023/01/24 10:25:22;;;;;;;13.80;7.70;;;3.90;99.90;;;;;;5127300;27;20515;-91
2023/01/24 10:27:51;;;;;;;13.95;7.72;;;3.90;99.90;;;;;;5127069;27;20410;-91
2023/01/24 10:30:25;;;;;;;12.65;7.25;;;3.90;99.90;;;;;;5113718;27;20084;-91
2023/01/24 10:32:54;;;;;;;13.70;7.40;;;3.90;99.90;;;;;;5106262;28;20078;-90
2023/01/24 10:35:28;;;;;;;13.45;7.97;;;3.90;99.90;;;;;;5144319;27;20036;-90
2023/01/24 10:37:57;;;;;;;12.60;7.15;;;3.90;99.90;;;;;;5098043;28;20042;-91
2023/01/24 10:40:27;;;;;;;13.20;7.50;;;3.90;99.90;;;;;;5111592;27;20042;-91
2023/01/24 10:42:53;;;;;;;14.50;7.03;;;3.90;99.90;;;;;;5130528;27;20073;-91
2023/01/24 10:45:40;;;;;;;11.98;6.63;;;3.90;99.90;;;;;;5108181;28;20071;-91
2023/01/24 10:48:31;;;;;;;12.48;7.32;;;3.90;99.90;;;;;;5113673;27;20043;-90
2023/01/24 10:51:10;;;;;;;13.70;7.53;;;3.90;99.90;;;;;;5094005;28;20075;-91
2023/01/24 10:53:36;;;;;;;15.57;7.68;;;3.90;99.90;;;;;;5093149;28;20094;-90
2023/01/24 10:56:03;;;;;;;14.82;8.60;;;3.90;99.90;;;;;;5112242;27;20516;-91
2023/01/24 10:58:32;;;;;;;15.70;8.05;;;3.90;99.90;;;;;;5109430;28;20154;-91
2023/01/24 11:00:59;;;;;;;13.52;7.60;;;3.90;99.90;;;;;;5130303;28;20074;-91
2023/01/24 11:03:32;;;;;;;13.30;7.38;;;3.90;99.90;;;;;;5115369;28;20031;-91
2023/01/24 11:05:58;;;;;;;14.30;7.55;;;3.90;99.90;;;;;;5093451;28;20054;-91
2023/01/24 11:08:35;;;;;;;12.30;6.72;;;3.90;99.90;;;;;;5092745;28;20132;-91
2023/01/24 11:11:02;;;;;;;11.90;6.60;;;3.90;99.90;;;;;;5092911;28;20043;-91
2023/01/24 11:13:37;;;;;;;12.38;6.63;;;3.90;99.90;;;;;;5109405;28;20062;-91
2023/01/24 11:16:16;;;;;;;14.02;7.68;;;3.90;99.90;;;;;;5111481;28;20039;-91
2023/01/24 11:18:51;;;;;;;15.30;7.32;;;3.90;99.90;;;;;;5109444;28;20040;-91
2023/01/24 11:21:19;;;;;;;14.60;7.47;;;3.90;99.90;;;;;;5094768;28;20035;-91
2023/01/24 11:23:57;;;;;;;12.63;7.00;;;3.90;99.90;;;;;;5095295;28;20067;-91
2023/01/24 11:26:28;;;;;;;13.95;7.55;;;3.90;99.90;;;;;;5094842;28;20028;-91
2023/01/24 11:29:02;;;;;;;14.25;7.30;;;4.00;99.90;;;;;;5096076;28;20047;-91
2023/01/24 11:31:32;;;;;;;12.57;6.85;;;4.00;99.90;;;;;;5099799;28;20079;-91
2023/01/24 11:34:22;;;;;;;13.23;7.57;;;4.00;99.90;;;;;;5132996;27;20082;-91
2023/01/24 11:37:14;;;;;;;14.63;8.13;;;4.00;99.90;;;;;;5135017;27;20535;-90
2023/01/24 11:40:21;;;;;;;12.65;7.45;;;4.00;99.90;;;;;;5103075;28;20040;-91
2023/01/24 11:42:50;;;;;;;12.48;7.07;;;4.00;99.90;;;;;;5097087;28;20075;-91
2023/01/24 11:45:25;;;;;;;13.60;7.32;;;4.00;99.90;;;;;;5133978;27;20114;-91
2023/01/24 11:48:17;;;;;;;13.82;7.32;;;4.10;99.90;;;;;;5117865;27;20047;-92
2023/01/24 11:51:19;;;;;;;14.80;7.30;;;4.10;99.90;;;;;;5117285;27;20039;-91
2023/01/24 11:54:05;;;;;;;13.73;7.60;;;4.10;99.90;;;;;;5110898;27;20381;-91
2023/01/24 11:57:00;;;;;;;14.50;7.75;;;4.10;99.90;;;;;;5117206;27;20046;-91
2023/01/24 11:59:54;;;;;;;14.30;7.85;;;4.10;99.90;;;;;;5115730;27;20039;-91
2023/01/24 12:02:49;;;;;;;13.77;7.35;;;4.10;99.90;;;;;;5116970;27;20078;-91
2023/01/24 12:05:43;;;;;;;12.70;6.78;;;4.10;99.90;;;;;;5102561;28;20425;-91
2023/01/24 12:08:32;;;;;;;14.15;7.30;;;4.10;99.90;;;;;;5097107;28;20078;-91
2023/01/24 12:11:12;;;;;;;11.98;7.00;;;4.10;99.90;;;;;;5097650;28;20100;-90
2023/01/24 12:13:56;;;;;;;12.50;7.30;;;4.10;99.90;;;;;;5094615;28;20497;-91
2023/01/24 12:16:42;;;;;;;14.38;8.13;;;4.10;99.90;;;;;;5123411;27;20411;-91
2023/01/24 12:19:32;;;;;;;13.52;7.43;;;4.10;99.90;;;;;;5094476;28;20126;-91
2023/01/24 12:21:59;;;;;;;15.32;8.40;;;4.10;99.90;;;;;;5113575;27;20036;-91
2023/01/24 12:24:30;;;;;;;14.65;8.05;;;4.20;99.90;;;;;;5095588;28;20040;-91
2023/01/24 12:27:02;;;;;;;14.52;8.70;;;4.20;99.90;;;;;;5095785;28;20392;-91
2023/01/24 12:29:36;;;;;;;14.82;8.52;;;4.20;99.90;;;;;;5099793;27;20078;-91
2023/01/24 12:32:19;;;;;;;13.98;7.95;;;4.20;99.90;;;;;;5132433;27;20039;-91
2023/01/24 12:34:54;;;;;;;12.15;7.40;;;4.20;99.90;;;;;;5116640;27;20046;-91
2023/01/24 12:37:29;;;;;;;13.10;7.50;;;4.20;99.90;;;;;;5094910;27;20115;-91
2023/01/24 12:40:00;;;;;;;12.85;6.72;;;4.20;99.90;;;;;;5093917;28;20036;-90
2023/01/24 12:43:03;;;;;;;13.00;7.40;;;4.20;99.90;;;;;;5098365;27;20031;-91
2023/01/24 12:45:47;;;;;;;14.82;7.32;;;4.20;99.90;;;;;;5115999;27;20082;-91
2023/01/24 12:48:28;;;;;;;14.35;7.45;;;4.20;99.90;;;;;;5113297;27;20404;-91
2023/01/24 12:51:12;;;;;;;12.63;7.03;;;4.10;99.90;;;;;;5115255;27;20130;-91
2023/01/24 12:53:56;;;;;;;15.32;7.80;;;4.10;99.90;;;;;;5129401;27;20050;-92
2023/01/24 12:56:28;;;;;;;14.70;8.60;;;4.10;99.90;;;;;;5129007;27;20048;-91
2023/01/24 12:58:55;;;;;;;14.43;8.68;;;4.10;99.90;;;;;;5096699;28;20036;-91
2023/01/24 13:01:27;;;;;;;15.50;8.95;;;4.10;99.90;;;;;;5112928;27;20042;-91
2023/01/24 13:04:11;;;;;;;13.57;7.72;;;4.10;99.90;;;;;;5109826;28;20073;-91
2023/01/24 13:07:08;;;;;;;13.77;7.45;;;4.10;99.90;;;;;;5114876;27;20039;-91
2023/01/24 13:10:00;;;;;;;13.95;7.15;;;4.10;99.90;;;;;;5113415;27;20031;-91
2023/01/24 13:12:28;;;;;;;12.35;6.55;;;4.10;99.90;;;;;;5108506;28;20039;-91
2023/01/24 13:15:14;;;;;;;15.25;7.90;;;4.10;99.90;;;;;;5110702;27;20047;-91
2023/01/24 13:18:10;;;;;;;14.07;7.78;;;4.10;99.90;;;;;;5095588;28;20553;-91
2023/01/24 13:20:58;;;;;;;14.20;6.85;;;4.10;99.90;;;;;;5098284;27;20035;-91
2023/01/24 13:23:43;;;;;;;12.75;7.03;;;4.10;99.90;;;;;;5099612;28;20035;-91
2023/01/24 13:26:15;;;;;;;14.48;7.85;;;4.10;99.90;;;;;;5099578;27;20066;-91
2023/01/24 13:29:11;;;;;;;14.32;8.73;;;4.10;99.90;;;;;;5096058;28;20036;-91
2023/01/24 13:32:06;;;;;;;13.68;7.10;;;4.10;99.90;;;;;;5100892;27;20038;-92
2023/01/24 13:34:42;;;;;;;13.55;7.82;;;4.10;99.90;;;;;;5073656;28;20040;-91
2023/01/24 13:37:17;;;;;;;13.93;7.53;;;4.00;99.90;;;;;;5090798;28;20039;-91
2023/01/24 13:39:45;;;;;;;14.23;7.97;;;4.00;99.90;;;;;;5092258;28;20497;-91
2023/01/24 13:42:17;;;;;;;13.77;8.43;;;4.00;99.90;;;;;;5110471;28;20043;-91
2023/01/24 13:44:43;;;;;;;14.90;8.85;;;4.00;99.90;;;;;;5117687;27;20035;-90